createdAt,value
2019-05-14T00:00:32.368Z,0.00
2019-05-14T00:01:32.383Z,0.00
2019-05-14T00:02:32.399Z,0.00
2019-05-14T00:03:32.548Z,0.00
2019-05-14T00:04:32.429Z,0.00
2019-05-14T00:05:32.445Z,0.00
2019-05-14T00:06:32.457Z,0.00
2019-05-14T00:07:32.472Z,0.00
2019-05-14T00:08:32.484Z,0.00
2019-05-14T00:09:32.502Z,0.00
2019-05-14T00:10:32.515Z,0.00
2019-05-14T00:11:32.532Z,0.00
2019-05-14T00:12:32.545Z,0.00
2019-05-14T00:13:32.556Z,0.00
2019-05-14T00:14:39.536Z,0.00
2019-05-14T00:15:32.589Z,0.00
2019-05-14T00:16:32.603Z,0.00
2019-05-14T00:17:32.623Z,0.00
2019-05-14T00:18:32.630Z,0.00
2019-05-14T00:19:32.647Z,0.00
2019-05-14T00:20:32.663Z,0.00
2019-05-14T00:21:32.680Z,0.00
2019-05-14T00:22:32.690Z,0.00
2019-05-14T00:23:32.702Z,0.00
2019-05-14T00:24:32.722Z,0.00
2019-05-14T00:25:32.736Z,0.00
2019-05-14T00:26:32.746Z,0.00
2019-05-14T00:27:32.763Z,0.00
2019-05-14T00:28:32.776Z,0.00
2019-05-14T00:29:32.982Z,0.00
2019-05-14T00:30:32.809Z,0.00
2019-05-14T00:31:32.824Z,0.00
2019-05-14T00:32:32.838Z,0.00
2019-05-14T00:33:32.853Z,0.00
2019-05-14T00:34:32.869Z,0.00
2019-05-14T00:35:35.703Z,0.00
2019-05-14T00:36:32.892Z,0.00
2019-05-14T00:37:32.911Z,0.00
2019-05-14T00:38:32.932Z,0.00
2019-05-14T00:39:32.940Z,0.00
2019-05-14T00:40:32.955Z,0.00
2019-05-14T00:41:32.967Z,0.00
2019-05-14T00:42:32.981Z,0.00
2019-05-14T00:43:32.996Z,0.00
2019-05-14T00:44:33.007Z,0.00
2019-05-14T00:45:33.046Z,0.00
2019-05-14T00:46:33.042Z,0.00
2019-05-14T00:47:33.058Z,0.00
2019-05-14T00:48:33.070Z,0.00
2019-05-14T00:49:33.262Z,0.00
2019-05-14T00:50:33.096Z,0.00
2019-05-14T00:51:33.109Z,0.00
2019-05-14T00:52:33.122Z,0.00
2019-05-14T00:53:33.136Z,0.00
2019-05-14T00:54:33.155Z,0.00
2019-05-14T00:55:33.169Z,0.00
2019-05-14T00:56:33.208Z,0.00
2019-05-14T00:57:33.198Z,0.00
2019-05-14T00:58:33.214Z,0.00
2019-05-14T00:59:33.225Z,0.00
2019-05-14T01:00:33.241Z,0.00
2019-05-14T01:01:33.257Z,0.00
2019-05-14T01:02:33.271Z,0.00
2019-05-14T01:03:33.281Z,0.00
2019-05-14T01:04:33.295Z,0.00
2019-05-14T01:05:33.312Z,0.00
2019-05-14T01:06:33.326Z,0.00
2019-05-14T01:07:33.345Z,0.00
2019-05-14T01:08:33.354Z,0.00
2019-05-14T01:09:33.368Z,0.00
2019-05-14T01:10:33.379Z,0.00
2019-05-14T01:11:33.396Z,0.00
2019-05-14T01:12:33.408Z,0.00
2019-05-14T01:13:33.423Z,0.00
2019-05-14T01:14:33.438Z,0.00
2019-05-14T01:15:33.454Z,0.00
2019-05-14T01:16:33.469Z,0.00
2019-05-14T01:17:33.488Z,0.00
2019-05-14T01:18:33.500Z,0.00
2019-05-14T01:19:33.511Z,0.00
2019-05-14T01:20:33.526Z,0.00
2019-05-14T01:21:33.539Z,0.00
2019-05-14T01:22:33.560Z,0.00
2019-05-14T01:23:33.569Z,0.00
2019-05-14T01:24:33.582Z,0.00
2019-05-14T01:25:33.599Z,0.00
2019-05-14T01:26:33.610Z,0.00
2019-05-14T01:27:33.636Z,0.00
2019-05-14T01:28:33.637Z,0.00
2019-05-14T01:29:33.659Z,0.00
2019-05-14T01:30:33.669Z,0.00
2019-05-14T01:31:33.686Z,0.00
2019-05-14T01:32:33.693Z,0.00
2019-05-14T01:33:33.709Z,0.00
2019-05-14T01:34:33.725Z,0.00
2019-05-14T01:35:33.737Z,0.00
2019-05-14T01:36:33.757Z,0.00
2019-05-14T01:37:33.798Z,0.00
2019-05-14T01:38:33.913Z,0.00
2019-05-14T01:39:33.799Z,0.00
2019-05-14T01:40:33.813Z,0.00
2019-05-14T01:41:33.826Z,0.00
2019-05-14T01:42:33.838Z,0.00
2019-05-14T01:43:33.850Z,0.00
2019-05-14T01:44:33.868Z,0.00
2019-05-14T01:45:33.879Z,0.00
2019-05-14T01:46:33.894Z,0.00
2019-05-14T01:47:33.907Z,0.00
2019-05-14T01:48:33.923Z,0.00
2019-05-14T01:49:33.940Z,0.00
2019-05-14T01:50:33.952Z,0.00
2019-05-14T01:51:33.969Z,0.00
2019-05-14T01:52:33.974Z,0.00
2019-05-14T01:53:34.008Z,0.00
2019-05-14T01:54:34.010Z,0.00
2019-05-14T01:55:34.022Z,0.00
2019-05-14T01:56:34.032Z,0.00
2019-05-14T01:57:34.049Z,0.00
2019-05-14T01:58:34.062Z,0.00
2019-05-14T01:59:34.072Z,0.00
2019-05-14T02:00:34.088Z,0.00
2019-05-14T02:01:34.106Z,0.00
2019-05-14T02:02:34.115Z,0.00
2019-05-14T02:03:34.132Z,0.00
2019-05-14T02:04:34.143Z,0.00
2019-05-14T02:05:34.160Z,0.00
2019-05-14T02:06:34.169Z,0.00
2019-05-14T02:07:34.185Z,0.00
2019-05-14T02:08:34.200Z,0.00
2019-05-14T02:09:34.211Z,0.00
2019-05-14T02:10:34.228Z,0.00
2019-05-14T02:11:34.241Z,0.00
2019-05-14T02:12:34.257Z,0.00
2019-05-14T02:13:34.423Z,0.00
2019-05-14T02:14:34.282Z,0.00
2019-05-14T02:15:39.564Z,0.00
2019-05-14T02:16:34.310Z,0.00
2019-05-14T02:17:34.324Z,0.00
2019-05-14T02:18:34.344Z,0.00
2019-05-14T02:19:34.353Z,0.00
2019-05-14T02:20:34.368Z,0.00
2019-05-14T02:21:34.384Z,0.00
2019-05-14T02:22:34.392Z,0.00
2019-05-14T02:23:34.407Z,0.00
2019-05-14T02:24:34.421Z,0.00
2019-05-14T02:25:34.438Z,0.00
2019-05-14T02:26:34.450Z,0.00
2019-05-14T02:27:34.969Z,0.00
2019-05-14T02:28:34.477Z,0.00
2019-05-14T02:29:34.490Z,0.00
2019-05-14T02:30:48.255Z,0.00
2019-05-14T02:31:34.517Z,0.00
2019-05-14T02:32:34.531Z,0.00
2019-05-14T02:33:34.548Z,0.00
2019-05-14T02:34:34.562Z,0.00
2019-05-14T02:35:34.577Z,0.00
2019-05-14T02:36:34.593Z,0.00
2019-05-14T02:37:34.603Z,0.00
2019-05-14T02:38:34.619Z,0.00
2019-05-14T02:39:34.631Z,0.00
2019-05-14T02:40:34.652Z,0.00
2019-05-14T02:41:34.662Z,0.00
2019-05-14T02:42:34.677Z,0.00
2019-05-14T02:43:34.689Z,0.00
2019-05-14T02:44:34.704Z,0.00
2019-05-14T02:45:34.721Z,0.00
2019-05-14T02:46:34.737Z,0.00
2019-05-14T02:47:34.747Z,0.00
2019-05-14T02:48:34.797Z,0.00
2019-05-14T02:49:34.777Z,0.00
2019-05-14T02:50:34.793Z,0.00
2019-05-14T02:51:34.807Z,0.00
2019-05-14T02:52:34.825Z,0.00
2019-05-14T02:53:34.838Z,0.00
2019-05-14T02:54:34.855Z,0.00
2019-05-14T02:55:34.864Z,0.00
2019-05-14T02:56:34.881Z,0.00
2019-05-14T02:57:34.898Z,0.00
2019-05-14T02:58:34.915Z,0.00
2019-05-14T02:59:34.924Z,0.00
2019-05-14T03:00:34.937Z,0.00
2019-05-14T03:01:34.956Z,0.00
2019-05-14T03:02:34.970Z,0.00
2019-05-14T03:03:34.984Z,0.00
2019-05-14T03:04:34.999Z,0.00
2019-05-14T03:05:35.012Z,0.00
2019-05-14T03:06:35.038Z,0.00
2019-05-14T03:07:35.044Z,0.00
2019-05-14T03:08:35.056Z,0.00
2019-05-14T03:09:35.072Z,0.00
2019-05-14T03:10:35.088Z,0.00
2019-05-14T03:11:35.100Z,0.00
2019-05-14T03:12:35.120Z,0.00
2019-05-14T03:13:35.131Z,0.00
2019-05-14T03:14:35.143Z,0.00
2019-05-14T03:15:35.156Z,0.00
2019-05-14T03:16:35.964Z,0.00
2019-05-14T03:17:35.190Z,0.00
2019-05-14T03:18:35.358Z,5.63
2019-05-14T03:19:35.265Z,5.63
2019-05-14T03:20:35.229Z,5.63
2019-05-14T03:21:35.245Z,5.63
2019-05-14T03:22:52.594Z,5.63
2019-05-14T03:23:35.276Z,5.63
2019-05-14T03:24:35.290Z,5.63
2019-05-14T03:25:35.302Z,5.63
2019-05-14T03:26:35.321Z,11.25
2019-05-14T03:27:35.333Z,11.25
2019-05-14T03:28:35.350Z,11.25
2019-05-14T03:29:35.361Z,11.25
2019-05-14T03:30:35.383Z,11.25
2019-05-14T03:31:35.405Z,16.88
2019-05-14T03:32:35.407Z,16.88
2019-05-14T03:33:35.431Z,16.88
2019-05-14T03:34:41.862Z,16.88
2019-05-14T03:35:44.609Z,22.50
2019-05-14T03:36:35.841Z,22.50
2019-05-14T03:37:35.484Z,22.50
2019-05-14T03:38:35.496Z,22.50
2019-05-14T03:39:35.509Z,28.13
2019-05-14T03:40:35.525Z,28.13
2019-05-14T03:41:35.545Z,28.13
2019-05-14T03:42:35.552Z,28.13
2019-05-14T03:43:38.897Z,33.75
2019-05-14T03:44:35.583Z,33.75
2019-05-14T03:45:38.895Z,33.75
2019-05-14T03:46:45.700Z,39.38
2019-05-14T03:47:39.123Z,39.38
2019-05-14T03:48:35.643Z,45.00
2019-05-14T03:49:35.661Z,45.00
2019-05-14T03:50:38.737Z,45.00
2019-05-14T03:51:35.688Z,50.63
2019-05-14T03:52:35.700Z,50.63
2019-05-14T03:53:52.297Z,56.25
2019-05-14T03:54:35.728Z,56.25
2019-05-14T03:55:35.769Z,56.25
2019-05-14T03:56:39.212Z,61.88
2019-05-14T03:57:35.850Z,61.88
2019-05-14T03:58:39.132Z,67.50
2019-05-14T03:59:35.983Z,67.50
2019-05-14T04:00:38.869Z,67.50
2019-05-14T04:01:35.859Z,73.13
2019-05-14T04:02:38.914Z,73.13
2019-05-14T04:03:35.892Z,73.13
2019-05-14T04:04:39.080Z,78.75
2019-05-14T04:05:36.001Z,78.75
2019-05-14T04:06:35.912Z,84.38
2019-05-14T04:07:39.111Z,84.38
2019-05-14T04:08:38.892Z,90.00
2019-05-14T04:09:35.951Z,90.00
2019-05-14T04:10:39.108Z,95.63
2019-05-14T04:11:35.982Z,95.63
2019-05-14T04:12:36.001Z,101.25
2019-05-14T04:13:36.074Z,106.88
2019-05-14T04:14:36.080Z,112.50
2019-05-14T04:15:39.045Z,118.13
2019-05-14T04:16:36.060Z,129.38
2019-05-14T04:17:40.964Z,129.38
2019-05-14T04:18:39.771Z,135.00
2019-05-14T04:19:39.182Z,140.63
2019-05-14T04:20:39.123Z,146.25
2019-05-14T04:21:36.131Z,146.25
2019-05-14T04:22:39.093Z,151.88
2019-05-14T04:23:39.317Z,163.13
2019-05-14T04:24:38.097Z,168.75
2019-05-14T04:25:38.990Z,174.38
2019-05-14T04:26:53.479Z,180.00
2019-05-14T04:27:36.221Z,180.00
2019-05-14T04:28:39.237Z,191.25
2019-05-14T04:29:39.430Z,191.25
2019-05-14T04:30:39.710Z,191.25
2019-05-14T04:31:39.053Z,191.25
2019-05-14T04:32:39.286Z,191.25
2019-05-14T04:33:38.937Z,191.25
2019-05-14T04:34:39.476Z,191.25
2019-05-14T04:35:39.882Z,191.25
2019-05-14T04:36:39.129Z,191.25
2019-05-14T04:37:39.644Z,191.25
2019-05-14T04:38:36.397Z,185.63
2019-05-14T04:39:39.267Z,191.25
2019-05-14T04:40:36.427Z,196.88
2019-05-14T04:41:39.373Z,213.75
2019-05-14T04:42:39.868Z,236.25
2019-05-14T04:43:39.604Z,241.88
2019-05-14T04:44:40.025Z,247.50
2019-05-14T04:45:39.476Z,253.13
2019-05-14T04:46:39.380Z,258.75
2019-05-14T04:47:40.964Z,253.13
2019-05-14T04:48:42.311Z,230.63
2019-05-14T04:49:39.548Z,225.00
2019-05-14T04:50:40.251Z,219.38
2019-05-14T04:51:39.664Z,219.38
2019-05-14T04:52:39.941Z,331.88
2019-05-14T04:53:39.314Z,601.88
2019-05-14T04:54:39.371Z,545.63
2019-05-14T04:55:39.938Z,433.13
2019-05-14T04:56:39.674Z,1096.88
2019-05-14T04:57:39.192Z,1147.50
2019-05-14T04:58:40.480Z,1231.88
2019-05-14T04:59:39.732Z,1265.63
2019-05-14T05:00:39.191Z,1254.38
2019-05-14T05:01:39.914Z,1288.13
2019-05-14T05:02:39.793Z,1327.50
2019-05-14T05:03:39.864Z,1355.63
2019-05-14T05:04:40.894Z,1445.63
2019-05-14T05:05:39.377Z,1473.75
2019-05-14T05:06:39.719Z,1468.13
2019-05-14T05:07:39.415Z,1473.75
2019-05-14T05:08:39.510Z,1445.63
2019-05-14T05:09:39.858Z,1445.63
2019-05-14T05:10:39.669Z,1479.38
2019-05-14T05:11:39.374Z,1569.38
2019-05-14T05:12:38.728Z,1631.25
2019-05-14T05:13:39.689Z,1636.88
2019-05-14T05:14:38.917Z,1625.63
2019-05-14T05:15:39.401Z,1614.38
2019-05-14T05:16:39.180Z,1648.13
2019-05-14T05:17:46.628Z,1698.75
2019-05-14T05:18:39.742Z,1715.63
2019-05-14T05:19:39.815Z,1738.13
2019-05-14T05:20:39.370Z,1760.63
2019-05-14T05:21:38.736Z,1771.88
2019-05-14T05:22:39.406Z,1805.63
2019-05-14T05:23:38.691Z,1766.25
2019-05-14T05:24:38.072Z,1732.50
2019-05-14T05:25:38.454Z,1715.63
2019-05-14T05:26:39.233Z,1760.63
2019-05-14T05:27:38.230Z,1794.38
2019-05-14T05:28:39.129Z,1828.13
2019-05-14T05:29:39.265Z,1839.38
2019-05-14T05:30:38.564Z,1822.50
2019-05-14T05:31:38.154Z,1856.25
2019-05-14T05:32:38.851Z,1901.25
2019-05-14T05:33:38.369Z,1935.00
2019-05-14T05:34:38.875Z,1923.75
2019-05-14T05:35:40.279Z,1906.88
2019-05-14T05:36:38.056Z,1856.25
2019-05-14T05:37:38.486Z,1980.00
2019-05-14T05:38:39.434Z,2041.88
2019-05-14T05:39:38.553Z,1951.88
2019-05-14T05:40:39.146Z,1963.13
2019-05-14T05:41:38.463Z,2098.13
2019-05-14T05:42:38.556Z,2143.13
2019-05-14T05:43:39.333Z,2047.50
2019-05-14T05:44:39.404Z,2070.00
2019-05-14T05:45:38.152Z,2109.38
2019-05-14T05:46:38.800Z,2143.13
2019-05-14T05:47:39.107Z,2081.25
2019-05-14T05:48:38.915Z,2131.88
2019-05-14T05:49:38.195Z,2165.63
2019-05-14T05:50:38.857Z,2244.38
2019-05-14T05:51:39.240Z,2154.38
2019-05-14T05:52:38.845Z,2126.25
2019-05-14T05:53:39.319Z,2081.25
2019-05-14T05:54:38.379Z,2283.75
2019-05-14T05:55:39.478Z,2233.13
2019-05-14T05:56:38.742Z,2092.50
2019-05-14T05:57:39.177Z,2103.75
2019-05-14T05:58:39.774Z,2115.00
2019-05-14T05:59:39.372Z,1996.88
2019-05-14T06:00:39.843Z,2182.50
2019-05-14T06:01:45.763Z,1890.00
2019-05-14T06:02:39.864Z,2030.63
2019-05-14T06:03:39.320Z,2030.63
2019-05-14T06:04:39.200Z,2221.88
2019-05-14T06:05:38.856Z,2373.75
2019-05-14T06:06:39.033Z,2340.00
2019-05-14T06:07:39.468Z,2311.88
2019-05-14T06:08:38.793Z,2081.25
2019-05-14T06:09:38.407Z,2109.38
2019-05-14T06:10:39.997Z,2188.13
2019-05-14T06:11:38.344Z,2266.88
2019-05-14T06:12:38.766Z,2373.75
2019-05-14T06:13:39.046Z,2295.00
2019-05-14T06:14:38.513Z,2317.50
2019-05-14T06:15:45.704Z,2351.25
2019-05-14T06:16:38.577Z,1676.25
2019-05-14T06:17:39.195Z,2261.25
2019-05-14T06:18:39.349Z,2250.00
2019-05-14T06:19:38.486Z,2182.50
2019-05-14T06:20:38.839Z,2244.38
2019-05-14T06:21:39.781Z,2340.00
2019-05-14T06:22:38.688Z,2306.25
2019-05-14T06:23:38.838Z,2340.00
2019-05-14T06:24:39.101Z,2227.50
2019-05-14T06:25:40.080Z,2171.25
2019-05-14T06:26:38.562Z,2261.25
2019-05-14T06:27:38.529Z,2295.00
2019-05-14T06:28:40.783Z,2193.75
2019-05-14T06:29:38.624Z,2171.25
2019-05-14T06:30:39.504Z,2070.00
2019-05-14T06:31:38.895Z,1501.88
2019-05-14T06:32:38.967Z,945.00
2019-05-14T06:33:39.331Z,708.75
2019-05-14T06:34:38.680Z,635.63
2019-05-14T06:35:39.575Z,646.88
2019-05-14T06:36:39.541Z,618.75
2019-05-14T06:37:38.774Z,613.13
2019-05-14T06:38:39.121Z,568.13
2019-05-14T06:39:39.215Z,590.63
2019-05-14T06:40:39.569Z,585.00
2019-05-14T06:41:42.595Z,579.38
2019-05-14T06:42:39.569Z,573.75
2019-05-14T06:43:39.382Z,568.13
2019-05-14T06:44:38.893Z,568.13
2019-05-14T06:45:39.268Z,556.88
2019-05-14T06:46:39.218Z,545.63
2019-05-14T06:47:38.959Z,534.38
2019-05-14T06:48:39.659Z,523.13
2019-05-14T06:49:39.005Z,528.75
2019-05-14T06:50:39.372Z,534.38
2019-05-14T06:51:39.476Z,540.00
2019-05-14T06:52:39.075Z,534.38
2019-05-14T06:53:39.470Z,523.13
2019-05-14T06:54:39.109Z,517.50
2019-05-14T06:55:39.419Z,506.25
2019-05-14T06:56:39.149Z,500.63
2019-05-14T06:57:39.558Z,500.63
2019-05-14T06:58:39.226Z,500.63
2019-05-14T06:59:39.219Z,489.38
2019-05-14T07:00:39.616Z,489.38
2019-05-14T07:01:39.253Z,489.38
2019-05-14T07:02:43.673Z,489.38
2019-05-14T07:03:39.298Z,489.38
2019-05-14T07:04:39.634Z,483.75
2019-05-14T07:05:39.340Z,483.75
2019-05-14T07:06:39.365Z,478.13
2019-05-14T07:07:40.352Z,478.13
2019-05-14T07:08:39.517Z,472.50
2019-05-14T07:09:39.432Z,466.88
2019-05-14T07:10:39.642Z,466.88
2019-05-14T07:11:39.486Z,466.88
2019-05-14T07:12:39.497Z,461.25
2019-05-14T07:13:39.519Z,461.25
2019-05-14T07:14:39.546Z,461.25
2019-05-14T07:15:39.559Z,455.63
2019-05-14T07:16:39.576Z,450.00
2019-05-14T07:17:39.606Z,455.63
2019-05-14T07:18:52.990Z,450.00
2019-05-14T07:19:39.644Z,450.00
2019-05-14T07:20:39.663Z,444.38
2019-05-14T07:21:39.692Z,444.38
2019-05-14T07:22:39.722Z,444.38
2019-05-14T07:23:39.728Z,438.75
2019-05-14T07:24:40.668Z,438.75
2019-05-14T07:25:39.893Z,433.13
2019-05-14T07:26:39.794Z,433.13
2019-05-14T07:27:39.814Z,438.75
2019-05-14T07:28:42.525Z,433.13
2019-05-14T07:29:39.857Z,438.75
2019-05-14T07:30:39.883Z,438.75
2019-05-14T07:31:39.905Z,433.13
2019-05-14T07:32:39.931Z,433.13
2019-05-14T07:33:39.946Z,433.13
2019-05-14T07:34:39.964Z,433.13
2019-05-14T07:35:39.985Z,433.13
2019-05-14T07:36:40.005Z,427.50
2019-05-14T07:37:40.040Z,433.13
2019-05-14T07:38:40.050Z,433.13
2019-05-14T07:39:40.068Z,433.13
2019-05-14T07:40:40.095Z,421.88
2019-05-14T07:41:40.107Z,427.50
2019-05-14T07:42:40.128Z,421.88
2019-05-14T07:43:40.148Z,416.25
2019-05-14T07:44:40.170Z,421.88
2019-05-14T07:45:40.198Z,421.88
2019-05-14T07:46:40.212Z,416.25
2019-05-14T07:47:40.235Z,416.25
2019-05-14T07:48:40.268Z,410.63
2019-05-14T07:49:40.278Z,410.63
2019-05-14T07:50:40.297Z,410.63
2019-05-14T07:51:40.322Z,416.25
2019-05-14T07:52:45.353Z,416.25
2019-05-14T07:53:42.547Z,416.25
2019-05-14T07:54:40.387Z,416.25
2019-05-14T07:55:40.403Z,416.25
2019-05-14T07:56:40.436Z,416.25
2019-05-14T07:57:40.454Z,416.25
2019-05-14T07:58:40.471Z,410.63
2019-05-14T07:59:40.488Z,410.63
2019-05-14T08:00:40.533Z,405.00
2019-05-14T08:01:40.542Z,399.38
2019-05-14T08:02:40.555Z,399.38
2019-05-14T08:03:40.576Z,388.13
2019-05-14T08:04:40.593Z,382.50
2019-05-14T08:05:40.617Z,382.50
2019-05-14T08:06:40.643Z,376.88
2019-05-14T08:07:40.654Z,388.13
2019-05-14T08:08:40.677Z,388.13
2019-05-14T08:09:40.706Z,393.75
2019-05-14T08:10:40.716Z,399.38
2019-05-14T08:11:40.740Z,399.38
2019-05-14T08:12:40.757Z,393.75
2019-05-14T08:13:42.630Z,376.88
2019-05-14T08:14:54.866Z,348.75
2019-05-14T08:15:40.818Z,388.13
2019-05-14T08:16:40.842Z,416.25
2019-05-14T08:17:40.866Z,466.88
2019-05-14T08:18:40.883Z,466.88
2019-05-14T08:19:40.937Z,438.75
2019-05-14T08:20:40.913Z,388.13
2019-05-14T08:21:40.934Z,382.50
2019-05-14T08:22:40.955Z,399.38
2019-05-14T08:23:40.973Z,399.38
2019-05-14T08:24:40.991Z,433.13
2019-05-14T08:25:41.010Z,455.63
2019-05-14T08:26:42.985Z,444.38
2019-05-14T08:27:41.052Z,399.38
2019-05-14T08:28:41.069Z,393.75
2019-05-14T08:29:41.087Z,427.50
2019-05-14T08:30:41.104Z,438.75
2019-05-14T08:31:41.121Z,416.25
2019-05-14T08:32:41.141Z,371.25
2019-05-14T08:33:41.158Z,405.00
2019-05-14T08:34:41.177Z,405.00
2019-05-14T08:35:41.198Z,450.00
2019-05-14T08:36:41.214Z,466.88
2019-05-14T08:37:41.236Z,450.00
2019-05-14T08:38:45.399Z,438.75
2019-05-14T08:39:41.311Z,466.88
2019-05-14T08:40:41.294Z,405.00
2019-05-14T08:41:41.308Z,433.13
2019-05-14T08:42:41.323Z,421.88
2019-05-14T08:43:41.351Z,410.63
2019-05-14T08:44:41.359Z,466.88
2019-05-14T08:45:41.378Z,433.13
2019-05-14T08:46:44.702Z,416.25
2019-05-14T08:47:41.414Z,438.75
2019-05-14T08:48:41.432Z,371.25
2019-05-14T08:49:46.221Z,360.00
2019-05-14T08:50:41.467Z,315.00
2019-05-14T08:51:41.486Z,382.50
2019-05-14T08:52:41.503Z,371.25
2019-05-14T08:53:41.522Z,450.00
2019-05-14T08:54:41.539Z,489.38
2019-05-14T08:55:41.557Z,500.63
2019-05-14T08:56:41.579Z,495.00
2019-05-14T08:57:41.670Z,478.13
2019-05-14T08:58:41.615Z,478.13
2019-05-14T08:59:41.657Z,472.50
2019-05-14T09:00:41.645Z,450.00
2019-05-14T09:01:57.248Z,427.50
2019-05-14T09:02:41.681Z,410.63
2019-05-14T09:03:41.722Z,433.13
2019-05-14T09:04:43.290Z,455.63
2019-05-14T09:05:41.740Z,455.63
2019-05-14T09:06:41.756Z,444.38
2019-05-14T09:07:41.779Z,421.88
2019-05-14T09:08:41.803Z,405.00
2019-05-14T09:09:41.869Z,405.00
2019-05-14T09:10:41.854Z,455.63
2019-05-14T09:11:45.340Z,405.00
2019-05-14T09:12:42.046Z,371.25
2019-05-14T09:13:41.897Z,371.25
2019-05-14T09:14:41.912Z,393.75
2019-05-14T09:15:41.934Z,320.63
2019-05-14T09:16:46.963Z,371.25
2019-05-14T09:17:41.956Z,292.50
2019-05-14T09:18:41.973Z,298.13
2019-05-14T09:19:57.732Z,303.75
2019-05-14T09:20:42.014Z,315.00
2019-05-14T09:21:42.035Z,354.38
2019-05-14T09:22:42.069Z,376.88
2019-05-14T09:23:42.251Z,382.50
2019-05-14T09:24:42.086Z,410.63
2019-05-14T09:25:46.961Z,433.13
2019-05-14T09:26:42.121Z,421.88
2019-05-14T09:27:42.132Z,438.75
2019-05-14T09:28:42.160Z,455.63
2019-05-14T09:29:42.211Z,427.50
2019-05-14T09:30:42.183Z,326.25
2019-05-14T09:31:42.227Z,292.50
2019-05-14T09:32:42.223Z,382.50
2019-05-14T09:33:42.310Z,399.38
2019-05-14T09:34:42.304Z,405.00
2019-05-14T09:35:42.280Z,388.13
2019-05-14T09:36:42.292Z,399.38
2019-05-14T09:37:42.313Z,410.63
2019-05-14T09:38:42.796Z,438.75
2019-05-14T09:39:42.344Z,444.38
2019-05-14T09:40:42.368Z,438.75
2019-05-14T09:41:42.379Z,410.63
2019-05-14T09:42:42.400Z,371.25
2019-05-14T09:43:42.420Z,343.13
2019-05-14T09:44:42.569Z,326.25
2019-05-14T09:45:42.454Z,326.25
2019-05-14T09:46:42.494Z,331.88
2019-05-14T09:47:42.486Z,354.38
2019-05-14T09:48:42.500Z,393.75
2019-05-14T09:49:42.518Z,410.63
2019-05-14T09:50:42.545Z,433.13
2019-05-14T09:51:42.554Z,438.75
2019-05-14T09:52:42.589Z,416.25
2019-05-14T09:53:42.603Z,405.00
2019-05-14T09:54:44.183Z,410.63
2019-05-14T09:55:42.751Z,405.00
2019-05-14T09:56:42.683Z,365.63
2019-05-14T09:57:42.661Z,320.63
2019-05-14T09:58:42.678Z,292.50
2019-05-14T09:59:42.695Z,354.38
2019-05-14T10:00:42.720Z,331.88
2019-05-14T10:01:42.745Z,371.25
2019-05-14T10:02:42.758Z,444.38
2019-05-14T10:03:42.775Z,450.00
2019-05-14T10:04:42.796Z,421.88
2019-05-14T10:05:42.875Z,382.50
2019-05-14T10:06:42.833Z,348.75
2019-05-14T10:07:42.840Z,388.13
2019-05-14T10:08:42.857Z,376.88
2019-05-14T10:09:42.879Z,410.63
2019-05-14T10:10:42.914Z,365.63
2019-05-14T10:11:42.923Z,444.38
2019-05-14T10:12:52.416Z,455.63
2019-05-14T10:13:42.957Z,466.88
2019-05-14T10:14:42.973Z,483.75
2019-05-14T10:15:42.989Z,433.13
2019-05-14T10:16:43.006Z,483.75
2019-05-14T10:17:43.019Z,455.63
2019-05-14T10:18:43.035Z,427.50
2019-05-14T10:19:43.068Z,444.38
2019-05-14T10:20:45.894Z,444.38
2019-05-14T10:21:43.097Z,360.00
2019-05-14T10:22:43.117Z,495.00
2019-05-14T10:23:43.131Z,461.25
2019-05-14T10:24:43.264Z,444.38
2019-05-14T10:25:43.162Z,438.75
2019-05-14T10:26:43.203Z,416.25
2019-05-14T10:27:43.195Z,376.88
2019-05-14T10:28:43.604Z,371.25
2019-05-14T10:29:43.235Z,371.25
2019-05-14T10:30:43.251Z,348.75
2019-05-14T10:31:43.268Z,438.75
2019-05-14T10:32:43.326Z,455.63
2019-05-14T10:33:43.307Z,455.63
2019-05-14T10:34:43.326Z,444.38
2019-05-14T10:35:43.339Z,427.50
2019-05-14T10:36:43.361Z,421.88
2019-05-14T10:37:43.384Z,438.75
2019-05-14T10:38:43.396Z,433.13
2019-05-14T10:39:43.418Z,433.13
2019-05-14T10:40:43.432Z,455.63
2019-05-14T10:41:43.452Z,489.38
2019-05-14T10:42:43.485Z,517.50
2019-05-14T10:43:43.495Z,483.75
2019-05-14T10:44:43.516Z,438.75
2019-05-14T10:45:43.526Z,405.00
2019-05-14T10:46:43.551Z,365.63
2019-05-14T10:47:43.561Z,309.38
2019-05-14T10:48:43.580Z,309.38
2019-05-14T10:49:43.601Z,309.38
2019-05-14T10:50:56.116Z,298.13
2019-05-14T10:51:43.639Z,281.25
2019-05-14T10:52:43.667Z,275.63
2019-05-14T10:53:43.697Z,281.25
2019-05-14T10:54:55.460Z,292.50
2019-05-14T10:55:43.716Z,303.75
2019-05-14T10:56:43.739Z,309.38
2019-05-14T10:57:43.765Z,320.63
2019-05-14T10:58:43.767Z,354.38
2019-05-14T10:59:43.787Z,365.63
2019-05-14T11:00:43.814Z,399.38
2019-05-14T11:01:43.820Z,433.13
2019-05-14T11:02:43.840Z,433.13
2019-05-14T11:03:43.886Z,495.00
2019-05-14T11:04:43.876Z,478.13
2019-05-14T11:05:43.901Z,478.13
2019-05-14T11:06:43.922Z,461.25
2019-05-14T11:07:43.932Z,427.50
2019-05-14T11:08:43.949Z,393.75
2019-05-14T11:09:43.972Z,371.25
2019-05-14T11:10:43.989Z,360.00
2019-05-14T11:11:44.005Z,292.50
2019-05-14T11:12:44.025Z,303.75
2019-05-14T11:13:44.046Z,376.88
2019-05-14T11:14:44.073Z,393.75
2019-05-14T11:15:44.084Z,416.25
2019-05-14T11:16:44.103Z,438.75
2019-05-14T11:17:44.122Z,466.88
2019-05-14T11:18:44.138Z,489.38
2019-05-14T11:19:44.153Z,455.63
2019-05-14T11:20:44.169Z,433.13
2019-05-14T11:21:44.197Z,410.63
2019-05-14T11:22:44.317Z,343.13
2019-05-14T11:23:44.229Z,348.75
2019-05-14T11:24:44.250Z,348.75
2019-05-14T11:25:44.266Z,337.50
2019-05-14T11:26:44.299Z,331.88
2019-05-14T11:27:44.302Z,348.75
2019-05-14T11:28:44.335Z,388.13
2019-05-14T11:29:44.348Z,455.63
2019-05-14T11:30:44.430Z,528.75
2019-05-14T11:31:44.378Z,495.00
2019-05-14T11:32:44.392Z,450.00
2019-05-14T11:33:44.414Z,506.25
2019-05-14T11:34:44.432Z,489.38
2019-05-14T11:35:44.444Z,399.38
2019-05-14T11:36:44.466Z,376.88
2019-05-14T11:37:44.617Z,360.00
2019-05-14T11:38:44.513Z,376.88
2019-05-14T11:39:44.519Z,348.75
2019-05-14T11:40:44.578Z,270.00
2019-05-14T11:41:44.552Z,315.00
2019-05-14T11:42:44.576Z,258.75
2019-05-14T11:43:44.603Z,337.50
2019-05-14T11:44:44.608Z,348.75
2019-05-14T11:45:44.632Z,365.63
2019-05-14T11:46:52.210Z,388.13
2019-05-14T11:47:44.669Z,399.38
2019-05-14T11:48:44.686Z,405.00
2019-05-14T11:49:44.702Z,416.25
2019-05-14T11:50:44.721Z,438.75
2019-05-14T11:52:00.703Z,444.38
2019-05-14T11:52:44.756Z,438.75
2019-05-14T11:53:44.774Z,433.13
2019-05-14T11:54:44.791Z,483.75
2019-05-14T11:55:44.810Z,483.75
2019-05-14T11:56:44.827Z,461.25
2019-05-14T11:57:44.849Z,427.50
2019-05-14T11:58:44.868Z,382.50
2019-05-14T11:59:44.884Z,365.63
2019-05-14T12:00:44.904Z,354.38
2019-05-14T12:01:44.920Z,348.75
2019-05-14T12:02:44.944Z,275.63
2019-05-14T12:03:44.963Z,275.63
2019-05-14T12:04:44.981Z,292.50
2019-05-14T12:05:44.998Z,382.50
2019-05-14T12:06:45.019Z,371.25
2019-05-14T12:07:45.055Z,348.75
2019-05-14T12:08:45.055Z,360.00
2019-05-14T12:09:45.072Z,371.25
2019-05-14T12:10:45.089Z,320.63
2019-05-14T12:11:45.113Z,365.63
2019-05-14T12:12:45.129Z,472.50
2019-05-14T12:13:45.148Z,483.75
2019-05-14T12:14:45.177Z,500.63
2019-05-14T12:15:45.318Z,500.63
2019-05-14T12:16:45.206Z,416.25
2019-05-14T12:17:45.224Z,393.75
2019-05-14T12:18:45.242Z,393.75
2019-05-14T12:19:45.257Z,365.63
2019-05-14T12:20:45.306Z,315.00
2019-05-14T12:21:58.901Z,303.75
2019-05-14T12:22:45.317Z,315.00
2019-05-14T12:23:45.381Z,326.25
2019-05-14T12:24:45.358Z,320.63
2019-05-14T12:25:45.372Z,343.13
2019-05-14T12:26:45.397Z,360.00
2019-05-14T12:27:45.411Z,444.38
2019-05-14T12:28:45.428Z,382.50
2019-05-14T12:29:45.453Z,393.75
2019-05-14T12:30:45.465Z,399.38
2019-05-14T12:31:45.500Z,421.88
2019-05-14T12:32:45.563Z,393.75
2019-05-14T12:33:45.574Z,421.88
2019-05-14T12:34:45.542Z,416.25
2019-05-14T12:35:45.563Z,388.13
2019-05-14T12:36:45.579Z,360.00
2019-05-14T12:37:45.598Z,365.63
2019-05-14T12:38:45.625Z,331.88
2019-05-14T12:39:45.633Z,331.88